createdAt,value
2022-09-18T00:02:17.001Z,3.06
2022-09-18T00:07:23.261Z,3.04
2022-09-18T00:12:29.620Z,2.66
2022-09-18T00:17:35.937Z,2.85
2022-09-18T00:22:44.622Z,2.45
2022-09-18T00:27:49.995Z,3.19
2022-09-18T00:32:56.440Z,3.08
2022-09-18T00:38:03.966Z,2.47
2022-09-18T00:43:11.207Z,3.15
2022-09-18T00:48:17.640Z,3.17
2022-09-18T00:53:23.871Z,2.78
2022-09-18T00:58:30.109Z,6.71
2022-09-18T01:03:36.366Z,2.86
2022-09-18T01:08:44.324Z,1.59
2022-09-18T01:13:49.547Z,2.11
2022-09-18T01:18:55.817Z,2.34
2022-09-18T01:24:02.172Z,3.51
2022-09-18T01:29:08.485Z,2.31
2022-09-18T01:34:14.809Z,2.87
2022-09-18T01:39:21.097Z,5.26
2022-09-18T01:44:27.317Z,1.90
2022-09-18T01:49:33.582Z,2.29
2022-09-18T01:54:41.085Z,2.89
2022-09-18T01:59:48.516Z,3.14
2022-09-18T02:04:54.671Z,1.93
2022-09-18T02:10:00.922Z,2.57
2022-09-18T02:15:07.353Z,2.82
2022-09-18T02:20:13.611Z,4.66
2022-09-18T02:25:19.862Z,1.93
2022-09-18T02:30:26.150Z,2.07
2022-09-18T02:35:32.392Z,1.90
2022-09-18T02:40:38.770Z,3.83
2022-09-18T02:45:45.086Z,1.76
2022-09-18T02:50:51.345Z,1.76
2022-09-18T02:55:57.637Z,2.27
2022-09-18T03:01:04.001Z,4.24
2022-09-18T03:06:10.341Z,1.73
2022-09-18T03:11:16.624Z,1.32
2022-09-18T03:16:23.003Z,1.58
2022-09-18T03:21:29.243Z,2.08
2022-09-18T03:26:35.495Z,2.51
2022-09-18T03:31:41.830Z,2.18
2022-09-18T03:36:49.209Z,1.36
2022-09-18T03:41:55.505Z,2.38
2022-09-18T03:47:01.734Z,1.60
2022-09-18T03:52:07.981Z,1.34
2022-09-18T03:57:14.258Z,3.69
2022-09-18T04:02:20.540Z,1.96
2022-09-18T04:07:26.952Z,1.69
2022-09-18T04:12:33.469Z,2.88
2022-09-18T04:17:39.721Z,1.71
2022-09-18T04:22:46.000Z,3.50
2022-09-18T04:27:52.478Z,2.88
2022-09-18T04:32:58.765Z,1.44
2022-09-18T04:38:05.018Z,1.92
2022-09-18T04:43:11.403Z,2.15
2022-09-18T04:48:21.827Z,2.32
2022-09-18T04:53:37.365Z,2.34
2022-09-18T04:58:36.771Z,2.53
2022-09-18T05:03:38.259Z,1.93
2022-09-18T05:08:36.684Z,1.63
2022-09-18T05:16:09.963Z,2.01
2022-09-18T05:18:53.352Z,1.63
2022-09-18T05:23:52.758Z,1.81
2022-09-18T05:28:58.968Z,1.34
2022-09-18T05:34:08.862Z,1.69
2022-09-18T05:39:18.756Z,2.15
2022-09-18T05:49:42.447Z,4.87
2022-09-18T05:54:40.236Z,1.52
2022-09-18T05:59:54.533Z,2.38
2022-09-18T06:04:59.239Z,1.68
2022-09-18T06:17:02.771Z,4.40
2022-09-18T06:23:24.804Z,3.57
2022-09-18T06:28:24.322Z,1.74
2022-09-18T06:33:32.730Z,2.60
2022-09-18T06:38:55.423Z,2.55
2022-09-18T06:43:46.964Z,2.48
2022-09-18T06:48:47.337Z,2.80
2022-09-18T06:53:56.575Z,2.27
2022-09-18T06:59:07.102Z,3.54
2022-09-18T07:04:03.364Z,3.89
2022-09-18T07:09:09.676Z,2.50
2022-09-18T07:14:16.094Z,2.11
2022-09-18T07:19:22.384Z,2.50
2022-09-18T07:24:28.794Z,2.98
2022-09-18T07:29:35.099Z,2.02
2022-09-18T07:34:41.368Z,2.22
2022-09-18T07:39:47.704Z,2.32
2022-09-18T07:44:53.960Z,1.91
2022-09-18T07:50:00.295Z,2.49
2022-09-18T07:55:07.770Z,1.78
2022-09-18T08:00:14.137Z,2.09
2022-09-18T08:05:20.388Z,4.67
2022-09-18T08:10:26.892Z,2.42
2022-09-18T08:15:33.114Z,1.67
2022-09-18T08:20:39.964Z,2.08
2022-09-18T08:25:46.358Z,1.30
2022-09-18T08:30:52.839Z,4.85
2022-09-18T08:35:59.097Z,1.80
2022-09-18T08:41:05.385Z,2.99
2022-09-18T08:46:12.731Z,2.17
2022-09-18T08:51:20.089Z,1.27
2022-09-18T08:56:26.422Z,0.90
2022-09-18T09:01:32.937Z,2.48
2022-09-18T09:06:39.265Z,1.32
2022-09-18T09:11:45.561Z,2.01
2022-09-18T09:16:51.885Z,2.07
2022-09-18T09:21:58.260Z,1.85
2022-09-18T09:27:04.496Z,1.79
2022-09-18T09:32:11.427Z,2.14
2022-09-18T09:37:17.659Z,3.17
2022-09-18T09:42:23.971Z,1.79
2022-09-18T09:47:30.220Z,1.23
2022-09-18T09:52:36.594Z,1.61
2022-09-18T09:57:42.851Z,2.00
2022-09-18T10:02:49.152Z,2.53
2022-09-18T10:07:56.697Z,4.75
2022-09-18T10:13:03.053Z,1.61
2022-09-18T10:18:12.319Z,2.35
2022-09-18T10:23:16.376Z,1.93
2022-09-18T10:28:22.596Z,1.16
2022-09-18T10:33:28.978Z,1.48
2022-09-18T10:38:35.283Z,2.43
2022-09-18T10:43:41.844Z,3.00
2022-09-18T10:48:48.183Z,1.98
2022-09-18T10:53:54.627Z,3.36
2022-09-18T10:59:00.988Z,1.44
2022-09-18T11:04:07.334Z,1.78
2022-09-18T11:09:13.607Z,0.79
2022-09-18T11:14:19.924Z,3.04
2022-09-18T11:19:26.290Z,2.78
2022-09-18T11:24:32.602Z,1.10
2022-09-18T11:29:38.863Z,1.93
2022-09-18T11:34:45.190Z,1.54
2022-09-18T11:39:51.406Z,1.29
2022-09-18T11:44:57.729Z,3.01
2022-09-18T11:50:04.033Z,1.63
2022-09-18T11:55:10.298Z,1.32
2022-09-18T12:00:16.501Z,1.55
2022-09-18T12:05:22.840Z,1.44
2022-09-18T12:10:27.792Z,1.60
2022-09-18T12:15:34.303Z,1.68
2022-09-18T12:20:40.625Z,1.69
2022-09-18T12:25:47.052Z,3.15
2022-09-18T12:30:53.366Z,1.30
2022-09-18T12:35:59.696Z,1.38
2022-09-18T12:41:07.784Z,1.31
2022-09-18T12:46:14.103Z,1.98
2022-09-18T12:51:21.503Z,2.14
2022-09-18T12:56:27.775Z,1.53
2022-09-18T13:01:34.022Z,1.62
2022-09-18T13:06:40.300Z,1.37
2022-09-18T13:11:46.665Z,2.06
2022-09-18T13:16:53.644Z,3.47
2022-09-18T13:21:59.946Z,1.46
2022-09-18T13:27:06.203Z,3.11
2022-09-18T13:32:13.582Z,2.96
2022-09-18T13:37:20.882Z,2.40
2022-09-18T13:42:28.191Z,1.49
2022-09-18T13:47:34.394Z,2.08
2022-09-18T13:52:40.660Z,2.63
2022-09-18T13:57:46.982Z,1.88
2022-09-18T14:02:53.333Z,2.53
2022-09-18T14:07:59.585Z,7.73
2022-09-18T14:13:05.881Z,2.57
2022-09-18T14:18:12.126Z,2.18
2022-09-18T14:23:18.455Z,1.36
2022-09-18T14:28:24.694Z,1.40
2022-09-18T14:33:30.961Z,1.04
2022-09-18T14:38:37.244Z,1.39
2022-09-18T14:43:43.604Z,2.36
2022-09-18T14:48:49.910Z,1.50
2022-09-18T14:53:56.219Z,3.46
2022-09-18T14:59:02.581Z,1.28
2022-09-18T15:04:15.155Z,1.29
2022-09-18T15:09:41.886Z,1.11
2022-09-18T15:14:47.325Z,2.12
2022-09-18T15:21:59.445Z,1.52
2022-09-18T15:24:28.574Z,2.52
2022-09-18T15:29:39.050Z,2.36
2022-09-18T15:35:52.133Z,1.84
2022-09-18T15:40:06.211Z,1.90
2022-09-18T15:45:53.799Z,1.87
2022-09-18T15:54:28.570Z,2.57
2022-09-18T16:00:50.793Z,1.93
2022-09-18T16:05:50.841Z,3.54
2022-09-18T16:12:53.657Z,1.84
2022-09-18T16:18:02.935Z,4.25
2022-09-18T16:23:05.931Z,4.55
2022-09-18T16:26:09.344Z,4.05
2022-09-18T16:31:07.340Z,3.15
2022-09-18T16:36:23.506Z,3.05
2022-09-18T16:41:40.079Z,4.45
2022-09-18T16:46:46.941Z,2.18
2022-09-18T16:51:37.908Z,1.96
2022-09-18T17:04:46.927Z,1.89
2022-09-18T17:14:38.037Z,2.05
2022-09-18T17:19:40.870Z,1.85
2022-09-18T17:24:37.372Z,1.67
2022-09-18T17:29:49.474Z,2.58
2022-09-18T17:35:17.734Z,1.42
2022-09-18T17:48:13.570Z,1.20
2022-09-18T17:54:26.832Z,1.24
2022-09-18T18:01:18.095Z,1.21
2022-09-18T18:04:39.797Z,0.84
2022-09-18T18:10:17.766Z,1.40
2022-09-18T18:18:03.756Z,2.39
2022-09-18T18:19:52.536Z,2.25
2022-09-18T18:25:00.036Z,3.06
2022-09-18T18:30:22.546Z,1.34
2022-09-18T18:35:09.132Z,2.81
2022-09-18T18:40:17.122Z,2.16
2022-09-18T18:45:23.398Z,1.90
2022-09-18T18:50:29.887Z,1.63
2022-09-18T18:55:38.136Z,15.23
2022-09-18T19:00:45.920Z,7.20
2022-09-18T19:05:53.047Z,4.61
2022-09-18T19:10:59.560Z,4.64
2022-09-18T19:16:06.415Z,8.22
2022-09-18T19:21:16.077Z,3.97
2022-09-18T19:26:42.395Z,6.44
2022-09-18T19:31:28.989Z,3.47
2022-09-18T19:36:51.197Z,3.62
2022-09-18T19:42:07.118Z,3.37
2022-09-18T19:46:43.989Z,4.54
2022-09-18T19:51:52.691Z,4.37
2022-09-18T19:58:41.783Z,4.55
2022-09-18T20:02:10.795Z,4.83
2022-09-18T20:07:07.766Z,6.42
2022-09-18T20:12:14.208Z,11.48
2022-09-18T20:17:21.204Z,4.35
2022-09-18T20:22:28.414Z,6.18
2022-09-18T20:38:17.215Z,7.61
2022-09-18T21:09:39.852Z,4.09
2022-09-18T21:15:53.254Z,2.37
2022-09-18T21:20:59.916Z,2.76
2022-09-18T21:26:13.437Z,2.73
2022-09-18T21:31:16.640Z,4.52
2022-09-18T21:36:23.181Z,2.46
2022-09-18T21:41:29.621Z,6.09
2022-09-18T21:46:36.080Z,3.06
2022-09-18T21:51:42.385Z,3.12
2022-09-18T21:56:48.671Z,3.52
2022-09-18T22:01:55.623Z,4.24
2022-09-18T22:07:01.887Z,3.65
2022-09-18T22:12:08.265Z,5.06
2022-09-18T22:17:14.873Z,3.99
2022-09-18T22:22:21.212Z,4.74
2022-09-18T22:27:28.043Z,5.13
2022-09-18T22:32:34.728Z,10.46
2022-09-18T22:37:41.168Z,6.14
2022-09-18T22:42:47.448Z,11.17
2022-09-18T22:47:53.708Z,11.99
2022-09-18T22:52:59.963Z,7.88
2022-09-18T22:58:09.392Z,6.40
2022-09-18T23:03:16.750Z,5.40
2022-09-18T23:08:26.097Z,5.30
2022-09-18T23:13:32.504Z,6.45
2022-09-18T23:18:38.833Z,7.35
2022-09-18T23:23:45.155Z,7.02
2022-09-18T23:28:51.422Z,4.95
2022-09-18T23:33:57.645Z,8.20
2022-09-18T23:39:03.924Z,7.12
2022-09-18T23:44:10.367Z,10.57
2022-09-18T23:49:16.737Z,9.28
2022-09-18T23:54:23.059Z,8.75
2022-09-18T23:59:29.383Z,9.11
